Lime Springs, Iowa
Current Conditions -  °F | °C
As of 12:35 AM on Saturday 25 Oct 2014 (Local Time) from KFKA Reporting Station
Moderate Fog Moderate Fog  
Wind Chill: 52°   Ceiling: 500
Heat Index: 52°   Visibility: 0.5mi
Dew Point: 51°   Wind: 6mph
Humidity: 97%   Direction: 220°SW
Pressure: 29.93"   Gusts: NA
Location:  43.45°N, 92.28°W
Report Text: KFKA 250535Z AUTO 22005KT 1/2SM FG VV005 11/11 A2993 RMK AO2 T01110107
Loading
Personal Weather Stations






























Interactive Weather Map
Tropical Storm Tracking
New forecast layout! Learn more

10-Day Weather Forecast

Advertisements
Track Severe Weather on mobile